createdAt,value
2024-03-22T00:00:13.327Z,98521.06
2024-03-22T00:02:40.552Z,98517.27
2024-03-22T00:05:07.780Z,98521.67
2024-03-22T00:07:34.625Z,98521.71
2024-03-22T00:10:01.549Z,98515.48
2024-03-22T00:12:30.822Z,98510.48
2024-03-22T00:14:58.041Z,98508.50
2024-03-22T00:17:25.335Z,98506.06
2024-03-22T00:19:52.640Z,98503.17
2024-03-22T00:22:19.519Z,98497.59
2024-03-22T00:24:46.895Z,98498.63
2024-03-22T00:27:13.820Z,98494.52
2024-03-22T00:29:40.894Z,98493.38
2024-03-22T00:32:09.047Z,98489.11
2024-03-22T00:34:36.090Z,98493.30
2024-03-22T00:37:04.226Z,98488.92
2024-03-22T00:39:31.026Z,98488.84
2024-03-22T00:41:57.826Z,98490.80
2024-03-22T00:44:24.622Z,98492.45
2024-03-22T00:46:51.698Z,98497.70
2024-03-22T00:49:19.278Z,98502.34
2024-03-22T00:51:46.797Z,98500.08
2024-03-22T00:54:14.506Z,98502.04
2024-03-22T00:56:42.147Z,98509.56
2024-03-22T00:59:08.935Z,98514.46
2024-03-22T01:01:36.335Z,98514.90
2024-03-22T01:04:04.866Z,98517.60
2024-03-22T01:06:31.762Z,98512.30
2024-03-22T01:08:59.832Z,98513.56
2024-03-22T01:11:26.826Z,98506.48
2024-03-22T01:13:54.135Z,98498.41
2024-03-22T01:16:20.994Z,98499.35
2024-03-22T01:18:48.137Z,98494.59
2024-03-22T01:21:15.332Z,98494.75
2024-03-22T01:23:42.178Z,98492.26
2024-03-22T01:26:09.067Z,98491.28
2024-03-22T01:28:37.203Z,98484.38
2024-03-22T01:31:05.109Z,98490.16
2024-03-22T01:33:31.852Z,98492.94
2024-03-22T01:35:59.156Z,98489.80
2024-03-22T01:38:26.465Z,98492.81
2024-03-22T01:40:55.451Z,98490.25
2024-03-22T01:43:22.642Z,98490.27
2024-03-22T01:45:50.064Z,98488.99
2024-03-22T01:48:21.459Z,98490.69
2024-03-22T01:50:48.516Z,98482.21
2024-03-22T01:53:15.975Z,98478.12
2024-03-22T01:55:42.965Z,98475.89
2024-03-22T01:58:11.141Z,98471.05
2024-03-22T02:00:40.380Z,98462.77
2024-03-22T02:03:07.698Z,98465.17
2024-03-22T02:05:34.597Z,98465.24
2024-03-22T02:08:01.741Z,98469.45
2024-03-22T02:10:33.183Z,98465.33
2024-03-22T02:13:00.241Z,98462.25
2024-03-22T02:15:27.845Z,98458.80
2024-03-22T02:17:55.303Z,98452.92
2024-03-22T02:20:22.501Z,98457.04
2024-03-22T02:22:53.237Z,98452.59
2024-03-22T02:25:27.419Z,98451.52
2024-03-22T02:27:54.352Z,98449.13
2024-03-22T02:30:21.816Z,98445.93
2024-03-22T02:32:54.793Z,98447.96
2024-03-22T02:35:21.643Z,98445.77
2024-03-22T02:37:49.127Z,98446.29
2024-03-22T02:40:16.048Z,98441.91
2024-03-22T02:42:43.710Z,98433.66
2024-03-22T02:45:10.677Z,98435.65
2024-03-22T02:47:38.371Z,98428.85
2024-03-22T02:50:06.792Z,98435.31
2024-03-22T02:52:35.061Z,98431.83
2024-03-22T02:55:04.471Z,98433.32
2024-03-22T02:57:31.280Z,98430.95
2024-03-22T02:59:58.149Z,98423.02
2024-03-22T03:02:25.326Z,98423.48
2024-03-22T03:04:52.170Z,98419.01
2024-03-22T03:07:20.814Z,98417.69
2024-03-22T03:09:47.700Z,98419.96
2024-03-22T03:12:15.159Z,98420.54
2024-03-22T03:14:43.381Z,98418.52
2024-03-22T03:17:10.359Z,98422.45
2024-03-22T03:19:38.396Z,98423.63
2024-03-22T03:22:06.363Z,98425.73
2024-03-22T03:24:33.970Z,98426.48
2024-03-22T03:27:01.193Z,98424.93
2024-03-22T03:29:28.576Z,98426.86
2024-03-22T03:31:55.623Z,98430.27
2024-03-22T03:34:23.486Z,98426.77
2024-03-22T03:36:50.496Z,98418.08
2024-03-22T03:39:17.407Z,98412.11
2024-03-22T03:41:44.782Z,98414.39
2024-03-22T03:44:12.135Z,98413.90
2024-03-22T03:46:39.102Z,98414.69
2024-03-22T03:49:07.322Z,98411.52
2024-03-22T03:51:34.564Z,98414.37
2024-03-22T03:54:01.364Z,98406.30
2024-03-22T03:56:29.305Z,98400.27
2024-03-22T03:58:57.039Z,98399.60
2024-03-22T04:01:24.091Z,98399.45
2024-03-22T04:03:50.975Z,98398.55
2024-03-22T04:06:18.245Z,98395.33
2024-03-22T04:08:45.555Z,98397.59
2024-03-22T04:11:14.981Z,98396.67
2024-03-22T04:13:41.889Z,98396.49
2024-03-22T04:16:09.801Z,98399.51
2024-03-22T04:18:36.446Z,98396.92
2024-03-22T04:21:05.329Z,98394.18
2024-03-22T04:23:35.817Z,98396.84
2024-03-22T04:26:04.616Z,98396.08
2024-03-22T04:28:32.498Z,98401.92
2024-03-22T04:31:04.496Z,98404.44
2024-03-22T04:33:33.582Z,98400.37
2024-03-22T04:36:04.413Z,98401.69
2024-03-22T04:38:34.524Z,98402.85
2024-03-22T04:41:02.510Z,98399.09
2024-03-22T04:43:29.429Z,98394.52
2024-03-22T04:45:56.342Z,98393.10
2024-03-22T04:48:25.322Z,98392.14
2024-03-22T04:50:53.839Z,98391.24
2024-03-22T04:53:24.609Z,98394.73
2024-03-22T04:55:52.759Z,98398.46
2024-03-22T04:58:21.986Z,98401.02
2024-03-22T05:00:50.561Z,98403.37
2024-03-22T05:03:17.753Z,98408.17
2024-03-22T05:05:44.629Z,98404.16
2024-03-22T05:08:11.941Z,98410.23
2024-03-22T05:10:38.828Z,98412.06
2024-03-22T05:13:05.977Z,98412.92
2024-03-22T05:15:33.429Z,98417.08
2024-03-22T05:18:01.040Z,98419.04
2024-03-22T05:20:28.961Z,98420.17
2024-03-22T05:22:57.188Z,98422.94
2024-03-22T05:25:24.356Z,98416.27
2024-03-22T05:27:51.652Z,98409.92
2024-03-22T05:30:19.050Z,98407.61
2024-03-22T05:32:46.739Z,98408.02
2024-03-22T05:35:14.077Z,98408.80
2024-03-22T05:37:41.336Z,98413.31
2024-03-22T05:40:10.113Z,98413.75
2024-03-22T05:42:37.640Z,98415.98
2024-03-22T05:45:04.996Z,98418.10
2024-03-22T05:47:38.252Z,98422.27
2024-03-22T05:50:07.974Z,98424.35
2024-03-22T05:52:34.994Z,98430.44
2024-03-22T05:55:02.111Z,98435.71
2024-03-22T05:57:30.084Z,98431.27
2024-03-22T05:59:59.715Z,98429.52
2024-03-22T06:02:27.704Z,98427.14
2024-03-22T06:04:54.651Z,98424.24
2024-03-22T06:07:22.161Z,98420.67
2024-03-22T06:09:50.027Z,98421.54
2024-03-22T06:12:17.609Z,98422.27
2024-03-22T06:14:45.558Z,98420.22
2024-03-22T06:17:13.525Z,98426.14
2024-03-22T06:19:41.146Z,98427.38
2024-03-22T06:22:10.360Z,98423.05
2024-03-22T06:24:45.031Z,98425.27
2024-03-22T06:27:13.883Z,98427.88
2024-03-22T06:29:41.156Z,98425.22
2024-03-22T06:32:11.482Z,98420.70
2024-03-22T06:34:39.619Z,98418.41
2024-03-22T06:37:08.521Z,98415.14
2024-03-22T06:39:36.413Z,98412.23
2024-03-22T06:42:04.797Z,98418.55
2024-03-22T06:44:34.612Z,98416.72
2024-03-22T06:47:06.571Z,98413.84
2024-03-22T06:49:36.286Z,98410.21
2024-03-22T06:52:03.531Z,98405.58
2024-03-22T06:54:31.307Z,98402.84
2024-03-22T06:57:00.146Z,98411.85
2024-03-22T06:59:28.415Z,98410.10
2024-03-22T07:01:55.362Z,98408.61
2024-03-22T07:04:22.415Z,98403.10
2024-03-22T07:06:51.361Z,98398.10
2024-03-22T07:09:18.697Z,98395.95
2024-03-22T07:11:45.591Z,98392.77
2024-03-22T07:14:12.829Z,98386.85
2024-03-22T07:16:43.437Z,98387.58
2024-03-22T07:19:10.685Z,98384.73
2024-03-22T07:21:38.338Z,98381.32
2024-03-22T07:24:05.340Z,98377.17
2024-03-22T07:26:32.397Z,98373.09
2024-03-22T07:29:01.224Z,98373.98
2024-03-22T07:31:28.483Z,98373.05
2024-03-22T07:33:57.636Z,98370.08
2024-03-22T07:36:25.645Z,98368.69
2024-03-22T07:38:53.008Z,98367.71
2024-03-22T07:41:20.388Z,98367.48
2024-03-22T07:43:47.197Z,98366.17
2024-03-22T07:46:15.336Z,98357.78
2024-03-22T07:48:42.933Z,98358.73
2024-03-22T07:51:09.850Z,98360.59
2024-03-22T07:53:37.203Z,98360.36
2024-03-22T07:56:05.102Z,98363.13
2024-03-22T07:58:33.278Z,98361.98
2024-03-22T08:01:05.553Z,98361.61
2024-03-22T08:03:32.593Z,98361.63
2024-03-22T08:05:59.439Z,98364.45
2024-03-22T08:08:27.073Z,98365.69
2024-03-22T08:10:53.921Z,98365.41
2024-03-22T08:13:21.443Z,98364.02
2024-03-22T08:15:50.251Z,98362.64
2024-03-22T08:18:17.828Z,98357.02
2024-03-22T08:20:46.136Z,98355.11
2024-03-22T08:23:13.374Z,98346.98
2024-03-22T08:25:40.788Z,98344.55
2024-03-22T08:28:14.378Z,98337.73
2024-03-22T08:30:46.741Z,98333.14
2024-03-22T08:33:15.152Z,98329.33
2024-03-22T08:35:44.624Z,98320.48
2024-03-22T08:38:13.508Z,98321.14
2024-03-22T08:40:42.338Z,98320.34
2024-03-22T08:43:10.230Z,98314.04
2024-03-22T08:45:37.474Z,98315.10
2024-03-22T08:48:04.757Z,98306.80
2024-03-22T08:50:35.497Z,98302.15
2024-03-22T08:53:06.082Z,98298.81
2024-03-22T08:55:36.192Z,98299.64
2024-03-22T08:58:06.726Z,98292.19
2024-03-22T09:00:34.355Z,98282.63
2024-03-22T09:03:02.666Z,98277.32
2024-03-22T09:05:29.656Z,98276.04
2024-03-22T09:07:59.520Z,98274.95
2024-03-22T09:10:29.341Z,98274.14
2024-03-22T09:12:57.967Z,98268.20
2024-03-22T09:15:25.877Z,98262.02
2024-03-22T09:17:54.955Z,98257.86
2024-03-22T09:20:22.460Z,98255.85
2024-03-22T09:22:51.891Z,98250.74
2024-03-22T09:25:20.181Z,98245.62
2024-03-22T09:27:49.061Z,98240.23
2024-03-22T09:30:16.743Z,98232.73
2024-03-22T09:32:45.298Z,98234.00
2024-03-22T09:35:16.846Z,98231.54
2024-03-22T09:37:49.002Z,98228.09
2024-03-22T09:40:16.078Z,98224.23
2024-03-22T09:42:45.576Z,98226.27
2024-03-22T09:45:14.403Z,98220.98
2024-03-22T09:47:42.702Z,98220.52
2024-03-22T09:50:10.872Z,98220.39
2024-03-22T09:52:40.163Z,98217.24
2024-03-22T09:55:14.437Z,98219.20
2024-03-22T09:57:44.405Z,98219.42
2024-03-22T10:00:15.394Z,98218.13
2024-03-22T10:02:44.186Z,98216.11
2024-03-22T10:05:11.567Z,98220.17
2024-03-22T10:07:39.036Z,98220.59
2024-03-22T10:10:07.156Z,98219.05
2024-03-22T10:12:35.818Z,98220.89
2024-03-22T10:15:03.730Z,98219.38
2024-03-22T10:17:32.500Z,98220.27
2024-03-22T10:19:59.415Z,98215.70
2024-03-22T10:22:26.918Z,98217.89
2024-03-22T10:24:55.572Z,98216.61
2024-03-22T10:27:22.852Z,98218.20
2024-03-22T10:29:52.266Z,98221.15
2024-03-22T10:32:24.019Z,98211.73
2024-03-22T10:34:52.468Z,98212.06
2024-03-22T10:37:20.368Z,98211.31
2024-03-22T10:39:50.488Z,98211.77
2024-03-22T10:42:18.189Z,98209.75
2024-03-22T10:44:46.413Z,98208.60
2024-03-22T10:47:16.977Z,98205.71
2024-03-22T10:49:51.041Z,98208.46
2024-03-22T10:52:19.776Z,98206.96
2024-03-22T10:54:49.074Z,98205.57
2024-03-22T10:57:19.070Z,98202.46
2024-03-22T10:59:50.429Z,98200.61
2024-03-22T11:02:20.493Z,98195.98
2024-03-22T11:04:57.847Z,98197.66
2024-03-22T11:07:29.454Z,98195.73
2024-03-22T11:10:06.019Z,98192.56
2024-03-22T11:12:35.378Z,98187.75
2024-03-22T11:15:02.650Z,98183.96
2024-03-22T11:17:29.551Z,98184.13
2024-03-22T11:20:00.495Z,98179.79
2024-03-22T11:22:28.067Z,98174.02
2024-03-22T11:24:55.628Z,98169.70
2024-03-22T11:27:25.695Z,98164.45
2024-03-22T11:29:52.790Z,98158.27
2024-03-22T11:32:21.832Z,98158.95
2024-03-22T11:34:51.107Z,98152.27
2024-03-22T11:37:18.500Z,98145.33
2024-03-22T11:39:45.808Z,98140.27
2024-03-22T11:42:14.482Z,98133.65
2024-03-22T11:44:42.779Z,98134.52
2024-03-22T11:47:10.981Z,98131.27
2024-03-22T11:49:38.797Z,98130.29
2024-03-22T11:52:08.973Z,98123.41
2024-03-22T11:54:38.419Z,98116.98
2024-03-22T11:57:05.751Z,98111.70
2024-03-22T11:59:34.050Z,98106.56
2024-03-22T12:02:02.126Z,98101.97
2024-03-22T12:04:29.272Z,98099.76
2024-03-22T12:06:59.457Z,98095.91
2024-03-22T12:09:27.875Z,98092.50
2024-03-22T12:11:57.364Z,98096.77
2024-03-22T12:14:25.912Z,98092.92
2024-03-22T12:16:55.060Z,98091.44
2024-03-22T12:19:21.963Z,98086.85
2024-03-22T12:21:50.443Z,98083.95
2024-03-22T12:24:19.858Z,98079.91
2024-03-22T12:26:48.193Z,98079.94
2024-03-22T12:29:17.717Z,98071.67
2024-03-22T12:31:45.268Z,98072.09
2024-03-22T12:34:13.811Z,98066.41
2024-03-22T12:36:40.907Z,98063.89
2024-03-22T12:39:09.987Z,98062.14
2024-03-22T12:41:38.336Z,98058.02
2024-03-22T12:44:06.713Z,98051.23
2024-03-22T12:46:34.324Z,98044.05
2024-03-22T12:49:05.396Z,98048.90
2024-03-22T12:51:33.371Z,98044.73
2024-03-22T12:54:01.171Z,98040.29
2024-03-22T12:56:31.336Z,98039.60
2024-03-22T12:58:59.096Z,98029.75
2024-03-22T13:01:27.343Z,98025.34
2024-03-22T13:03:55.614Z,98022.91
2024-03-22T13:06:26.334Z,98022.94
2024-03-22T13:08:54.056Z,98017.31
2024-03-22T13:11:23.255Z,98015.70
2024-03-22T13:13:57.170Z,98015.83
2024-03-22T13:16:25.255Z,98011.15
2024-03-22T13:18:53.529Z,98010.80
2024-03-22T13:21:23.091Z,98000.71
2024-03-22T13:23:58.056Z,97997.98
2024-03-22T13:26:25.774Z,97999.34
2024-03-22T13:28:53.088Z,97996.77
2024-03-22T13:31:20.386Z,97997.28
2024-03-22T13:33:49.216Z,97993.79
2024-03-22T13:36:17.176Z,97988.73
2024-03-22T13:38:46.991Z,97988.19
2024-03-22T13:41:13.826Z,97987.59
2024-03-22T13:43:41.620Z,97988.41
2024-03-22T13:46:08.969Z,97982.61
2024-03-22T13:48:36.449Z,97982.80
2024-03-22T13:51:04.372Z,97972.96
2024-03-22T13:53:31.624Z,97962.66
2024-03-22T13:55:59.597Z,97966.02
2024-03-22T13:58:29.712Z,97959.30
2024-03-22T14:00:56.989Z,97955.16
2024-03-22T14:03:24.342Z,97949.59
2024-03-22T14:05:51.276Z,97949.46
2024-03-22T14:08:20.411Z,97949.86
2024-03-22T14:10:56.761Z,97944.36
2024-03-22T14:13:23.839Z,97941.61
2024-03-22T14:16:00.308Z,97932.54
2024-03-22T14:18:27.564Z,97929.39
2024-03-22T14:20:54.741Z,97930.66
2024-03-22T14:23:22.220Z,97932.35
2024-03-22T14:25:51.317Z,97930.36
2024-03-22T14:28:19.030Z,97924.11
2024-03-22T14:30:45.821Z,97926.05
2024-03-22T14:33:12.979Z,97919.11
2024-03-22T14:35:39.872Z,97920.55
2024-03-22T14:38:07.586Z,97923.23
2024-03-22T14:40:38.384Z,97921.91
2024-03-22T14:43:06.461Z,97918.15
2024-03-22T14:45:37.828Z,97915.48
2024-03-22T14:48:07.448Z,97911.88
2024-03-22T14:50:39.348Z,97910.80
2024-03-22T14:53:06.827Z,97908.09
2024-03-22T14:55:34.549Z,97902.80
2024-03-22T14:58:02.300Z,97897.99
2024-03-22T15:00:29.842Z,97899.11
2024-03-22T15:02:56.948Z,97891.48
2024-03-22T15:05:23.882Z,97892.82
2024-03-22T15:07:51.349Z,97892.79
2024-03-22T15:10:18.805Z,97888.70
2024-03-22T15:12:47.056Z,97877.36
2024-03-22T15:15:15.473Z,97875.91
2024-03-22T15:17:43.735Z,97872.92
2024-03-22T15:20:11.096Z,97867.55
2024-03-22T15:22:37.960Z,97864.98
2024-03-22T15:25:07.649Z,97862.27
2024-03-22T15:27:37.833Z,97852.21
2024-03-22T15:30:07.432Z,97852.23
2024-03-22T15:32:35.248Z,97851.77
2024-03-22T15:35:02.635Z,97845.39
2024-03-22T15:37:30.091Z,97843.74
2024-03-22T15:39:57.410Z,97842.23
2024-03-22T15:42:24.686Z,97840.72
2024-03-22T15:44:53.399Z,97840.34
2024-03-22T15:47:20.718Z,97834.80
2024-03-22T15:49:48.056Z,97831.50
2024-03-22T15:52:14.982Z,97830.44
2024-03-22T15:54:43.092Z,97831.67
2024-03-22T15:57:11.459Z,97830.19
2024-03-22T15:59:38.830Z,97832.38
2024-03-22T16:02:12.676Z,97828.40
2024-03-22T16:04:49.529Z,97828.71
2024-03-22T16:07:17.156Z,97824.92
2024-03-22T16:09:45.340Z,97824.42
2024-03-22T16:12:14.319Z,97820.38
2024-03-22T16:14:43.213Z,97816.65
2024-03-22T16:17:12.632Z,97813.66
2024-03-22T16:19:39.883Z,97810.61
2024-03-22T16:22:07.554Z,97801.05
2024-03-22T16:24:34.707Z,97797.40
2024-03-22T16:27:02.055Z,97798.08
2024-03-22T16:29:29.136Z,97793.07
2024-03-22T16:31:56.004Z,97788.52
2024-03-22T16:34:22.879Z,97790.05
2024-03-22T16:36:49.738Z,97785.48
2024-03-22T16:39:16.922Z,97784.75
2024-03-22T16:41:44.323Z,97782.38
2024-03-22T16:44:11.204Z,97780.92
2024-03-22T16:46:38.549Z,97780.92
2024-03-22T16:49:09.450Z,97780.63
2024-03-22T16:51:36.280Z,97782.59
2024-03-22T16:54:04.048Z,97775.02
2024-03-22T16:56:31.544Z,97773.36
2024-03-22T16:59:09.764Z,97773.92
2024-03-22T17:01:38.453Z,97772.21
2024-03-22T17:04:06.071Z,97774.10
2024-03-22T17:06:43.148Z,97776.27
2024-03-22T17:09:11.838Z,97776.77
2024-03-22T17:11:41.422Z,97774.39
2024-03-22T17:14:10.274Z,97779.69
2024-03-22T17:16:37.883Z,97787.88
2024-03-22T17:19:05.545Z,97784.21
2024-03-22T17:21:34.011Z,97784.02
2024-03-22T17:24:01.231Z,97783.98
2024-03-22T17:26:28.670Z,97785.85
2024-03-22T17:28:55.781Z,97778.98
2024-03-22T17:31:31.357Z,97780.77
2024-03-22T17:34:06.258Z,97775.64
2024-03-22T17:36:35.959Z,97769.02
2024-03-22T17:39:03.158Z,97771.14
2024-03-22T17:41:30.466Z,97766.62
2024-03-22T17:43:58.740Z,97764.16
2024-03-22T17:46:26.005Z,97759.81
2024-03-22T17:48:55.042Z,97762.98
2024-03-22T17:51:24.260Z,97761.81
2024-03-22T17:53:52.941Z,97756.88
2024-03-22T17:56:20.958Z,97752.58
2024-03-22T17:58:48.213Z,97752.11
2024-03-22T18:01:15.691Z,97751.71
2024-03-22T18:03:42.687Z,97747.23
2024-03-22T18:06:10.016Z,97746.66
2024-03-22T18:08:37.781Z,97744.08
2024-03-22T18:11:05.263Z,97746.01
2024-03-22T18:13:33.542Z,97742.98
2024-03-22T18:16:03.891Z,97740.61
2024-03-22T18:18:31.492Z,97743.20
2024-03-22T18:20:59.455Z,97744.64
2024-03-22T18:23:27.020Z,97739.46
2024-03-22T18:25:57.193Z,97732.05
2024-03-22T18:28:25.242Z,97724.97
2024-03-22T18:30:53.008Z,97723.07
2024-03-22T18:33:21.704Z,97717.61
2024-03-22T18:35:49.770Z,97720.77
2024-03-22T18:38:17.613Z,97716.92
2024-03-22T18:40:44.961Z,97715.77
2024-03-22T18:43:14.625Z,97714.00
2024-03-22T18:45:42.206Z,97712.58
2024-03-22T18:48:10.942Z,97708.21
2024-03-22T18:50:38.802Z,97709.66
2024-03-22T18:53:05.685Z,97712.17
2024-03-22T18:55:33.315Z,97710.10
2024-03-22T18:58:00.395Z,97710.32
2024-03-22T19:00:27.815Z,97708.24
2024-03-22T19:02:55.067Z,97707.38
2024-03-22T19:05:22.203Z,97703.90
2024-03-22T19:07:51.982Z,97709.75
2024-03-22T19:10:19.282Z,97711.36
2024-03-22T19:12:46.268Z,97710.70
2024-03-22T19:15:13.626Z,97713.39
2024-03-22T19:17:42.613Z,97711.93
2024-03-22T19:20:11.007Z,97715.50
2024-03-22T19:22:39.338Z,97714.20
2024-03-22T19:25:08.276Z,97718.25
2024-03-22T19:27:38.153Z,97721.67
2024-03-22T19:30:08.435Z,97728.86
2024-03-22T19:32:37.345Z,97736.04
2024-03-22T19:35:05.526Z,97733.44
2024-03-22T19:37:33.303Z,97734.51
2024-03-22T19:40:00.700Z,97730.23
2024-03-22T19:42:31.021Z,97727.57
2024-03-22T19:44:58.537Z,97727.52
2024-03-22T19:47:26.320Z,97724.23
2024-03-22T19:49:56.488Z,97718.89
2024-03-22T19:52:27.509Z,97718.55
2024-03-22T19:54:54.566Z,97718.80
2024-03-22T19:57:22.567Z,97715.13
2024-03-22T19:59:55.011Z,97714.12
2024-03-22T20:02:26.013Z,97717.77
2024-03-22T20:04:55.182Z,97716.48
2024-03-22T20:07:23.568Z,97715.23
2024-03-22T20:09:51.588Z,97718.50
2024-03-22T20:12:19.018Z,97712.66
2024-03-22T20:14:47.212Z,97710.59
2024-03-22T20:17:14.585Z,97709.55
2024-03-22T20:19:48.546Z,97709.55
2024-03-22T20:22:15.431Z,97706.66
2024-03-22T20:24:45.439Z,97708.17
2024-03-22T20:27:13.493Z,97700.21
2024-03-22T20:29:43.696Z,97700.55
2024-03-22T20:32:10.829Z,97691.22
2024-03-22T20:34:38.400Z,97689.75
2024-03-22T20:37:07.098Z,97685.06
2024-03-22T20:39:34.583Z,97678.81
2024-03-22T20:42:02.145Z,97679.08
2024-03-22T20:44:30.376Z,97680.98
2024-03-22T20:46:57.262Z,97676.32
2024-03-22T20:49:24.150Z,97673.91
2024-03-22T20:51:53.474Z,97669.37
2024-03-22T20:54:20.774Z,97666.23
2024-03-22T20:56:47.668Z,97668.63
2024-03-22T20:59:15.008Z,97663.68
2024-03-22T21:01:41.858Z,97661.33
2024-03-22T21:04:08.942Z,97662.52
2024-03-22T21:06:36.564Z,97656.13
2024-03-22T21:09:04.448Z,97652.80
2024-03-22T21:11:32.215Z,97651.69
2024-03-22T21:14:00.035Z,97649.75
2024-03-22T21:16:27.627Z,97646.90
2024-03-22T21:18:54.583Z,97646.36
2024-03-22T21:21:21.527Z,97642.70
2024-03-22T21:23:49.247Z,97636.66
2024-03-22T21:26:16.050Z,97640.89
2024-03-22T21:28:48.478Z,97641.12
2024-03-22T21:31:19.032Z,97638.64
2024-03-22T21:33:45.807Z,97636.88
2024-03-22T21:36:14.012Z,97635.44
2024-03-22T21:38:41.222Z,97637.99
2024-03-22T21:41:09.920Z,97636.23
2024-03-22T21:43:36.853Z,97635.89
2024-03-22T21:46:06.464Z,97630.48
2024-03-22T21:48:35.146Z,97625.98
2024-03-22T21:51:02.553Z,97629.66
2024-03-22T21:53:29.488Z,97623.69
2024-03-22T21:55:56.610Z,97622.80
2024-03-22T21:58:23.837Z,97621.60
2024-03-22T22:00:50.835Z,97616.23
2024-03-22T22:03:18.936Z,97612.37
2024-03-22T22:05:46.059Z,97613.96
2024-03-22T22:08:13.865Z,97611.38
2024-03-22T22:10:41.287Z,97604.44
2024-03-22T22:13:12.208Z,97598.60
2024-03-22T22:15:38.995Z,97594.44
2024-03-22T22:18:06.170Z,97594.55
2024-03-22T22:20:33.314Z,97588.79
2024-03-22T22:23:00.459Z,97586.02
2024-03-22T22:25:29.042Z,97585.05
2024-03-22T22:27:55.941Z,97577.24
2024-03-22T22:30:23.601Z,97573.58
2024-03-22T22:32:51.877Z,97566.21
2024-03-22T22:35:18.923Z,97562.73
2024-03-22T22:37:46.028Z,97559.02
2024-03-22T22:40:12.766Z,97551.55
2024-03-22T22:42:39.821Z,97548.30
2024-03-22T22:45:06.608Z,97546.31
2024-03-22T22:47:33.907Z,97542.13
2024-03-22T22:50:01.147Z,97536.25
2024-03-22T22:52:28.146Z,97529.65
2024-03-22T22:54:55.010Z,97522.27
2024-03-22T22:57:22.153Z,97515.73
2024-03-22T22:59:49.240Z,97518.55
2024-03-22T23:02:15.992Z,97516.36
2024-03-22T23:04:43.182Z,97516.52
2024-03-22T23:07:10.691Z,97517.59
2024-03-22T23:09:38.996Z,97510.39
2024-03-22T23:12:06.488Z,97505.11
2024-03-22T23:14:34.332Z,97505.84
2024-03-22T23:17:01.559Z,97507.98
2024-03-22T23:19:29.513Z,97507.56
2024-03-22T23:21:56.933Z,97501.35
2024-03-22T23:24:26.766Z,97497.52
2024-03-22T23:26:53.999Z,97496.65
2024-03-22T23:29:21.472Z,97492.27
2024-03-22T23:31:49.823Z,97490.50
2024-03-22T23:34:18.520Z,97483.26
2024-03-22T23:36:48.208Z,97476.67
2024-03-22T23:39:15.836Z,97472.73
2024-03-22T23:41:42.772Z,97470.11
2024-03-22T23:44:10.084Z,97465.77
2024-03-22T23:46:36.985Z,97460.93
2024-03-22T23:49:04.319Z,97464.52
2024-03-22T23:51:31.236Z,97466.89
2024-03-22T23:53:59.651Z,97459.79
2024-03-22T23:56:27.726Z,97459.02
2024-03-22T23:58:54.520Z,97452.52
